Time;durP1;ratioP1;P1;durP2;ratioP2;P2;SDS_P1;SDS_P2;PMS_P1;PMS_P2;Temp;Humidity;BMP_temperature;BMP_pressure;BME280_temperature;BME280_humidity;BME280_pressure;Samples;Min_cycle;Max_cycle;Signal;HPM_P1;HPM_P2
2022/01/09 00:00:29;;;;;;;1.00;0.40;;;;;;;4.67;77.53;97626.25;5077612;28;20055;-82
2022/01/09 00:02:58;;;;;;;0.68;0.40;;;;;;;4.83;76.98;97626.34;5077229;28;20056;-82
2022/01/09 00:05:27;;;;;;;0.60;0.30;;;;;;;4.76;76.50;97615.91;5077362;28;20049;-82
2022/01/09 00:07:54;;;;;;;0.75;0.35;;;;;;;4.95;76.20;97625.53;5078600;28;20065;-82
2022/01/09 00:10:23;;;;;;;1.00;0.38;;;;;;;4.90;75.77;97621.06;5077903;28;20461;-81
2022/01/09 00:12:51;;;;;;;0.32;0.30;;;;;;;4.95;75.91;97637.38;5077708;28;20048;-82
2022/01/09 00:15:18;;;;;;;0.70;0.40;;;;;;;4.65;77.10;97617.53;5078804;28;20044;-82
2022/01/09 00:17:45;;;;;;;0.28;0.25;;;;;;;4.72;76.51;97617.75;5078212;28;20052;-82
2022/01/09 00:20:14;;;;;;;0.50;0.30;;;;;;;4.59;77.26;97613.41;5077370;28;20064;-82
2022/01/09 00:22:44;;;;;;;0.40;0.30;;;;;;;4.78;76.89;97604.53;5077853;28;20055;-82
2022/01/09 00:25:12;;;;;;;0.40;0.28;;;;;;;4.80;76.13;97605.78;5076796;28;20048;-82
2022/01/09 00:27:40;;;;;;;0.85;0.50;;;;;;;4.80;76.51;97600.28;5077522;28;20057;-82
2022/01/09 00:30:10;;;;;;;0.40;0.30;;;;;;;4.69;76.48;97585.38;5077108;28;20051;-82
2022/01/09 00:32:38;;;;;;;0.63;0.40;;;;;;;4.56;77.24;97586.53;5080565;28;20047;-82
2022/01/09 00:35:07;;;;;;;0.63;0.40;;;;;;;4.77;76.06;97584.44;5082103;28;20440;-82
2022/01/09 00:37:34;;;;;;;1.27;0.35;;;;;;;4.79;76.25;97575.84;5080419;28;20063;-82
2022/01/09 00:40:04;;;;;;;0.85;0.52;;;;;;;4.77;76.37;97576.16;5082984;28;20059;-82
2022/01/09 00:42:32;;;;;;;0.47;0.32;;;;;;;4.85;75.82;97580.75;5080881;28;20053;-81
2022/01/09 00:45:00;;;;;;;0.60;0.40;;;;;;;4.64;75.86;97574.56;5081300;28;20052;-81
2022/01/09 00:47:27;;;;;;;0.63;0.40;;;;;;;4.77;75.82;97570.66;5080443;28;20044;-81
2022/01/09 00:49:54;;;;;;;0.95;0.40;;;;;;;4.87;75.40;97570.19;5080829;28;20131;-81
2022/01/09 00:52:22;;;;;;;0.60;0.40;;;;;;;4.92;75.47;97554.53;5079544;28;20059;-82
2022/01/09 00:54:49;;;;;;;1.13;0.50;;;;;;;4.78;75.69;97550.19;5079914;28;20052;-82
2022/01/09 00:57:18;;;;;;;0.82;0.50;;;;;;;4.97;74.75;97554.28;5081967;28;20405;-82
2022/01/09 00:59:46;;;;;;;0.25;0.20;;;;;;;5.00;74.90;97561.88;5064787;28;20064;-82
2022/01/09 01:02:13;;;;;;;0.68;0.40;;;;;;;5.07;74.92;97556.56;5080902;28;20048;-80
2022/01/09 01:04:41;;;;;;;0.77;0.40;;;;;;;5.07;75.04;97553.78;5079462;28;20048;-82
2022/01/09 01:07:08;;;;;;;0.60;0.40;;;;;;;5.15;73.70;97555.63;5080781;28;20139;-81
2022/01/09 01:09:36;;;;;;;0.63;0.50;;;;;;;5.12;73.94;97564.56;5079914;28;20053;-81
2022/01/09 01:12:04;;;;;;;0.57;0.40;;;;;;;4.96;75.46;97552.69;5081149;28;20048;-80
2022/01/09 01:14:33;;;;;;;0.38;0.30;;;;;;;5.00;74.62;97545.31;5079292;28;20052;-82
2022/01/09 01:17:00;;;;;;;0.73;0.50;;;;;;;4.97;75.29;97554.28;5079989;28;20052;-82
2022/01/09 01:19:28;;;;;;;0.40;0.30;;;;;;;4.97;74.89;97546.00;5080224;28;20048;-82
2022/01/09 01:21:56;;;;;;;0.45;0.30;;;;;;;5.13;74.07;97546.09;5080039;28;20076;-82
2022/01/09 01:24:23;;;;;;;0.65;0.47;;;;;;;5.06;74.70;97543.91;5079791;28;20076;-81
2022/01/09 01:26:51;;;;;;;0.57;0.35;;;;;;;4.99;74.51;97544.50;5078810;28;20040;-81
2022/01/09 01:29:18;;;;;;;0.68;0.40;;;;;;;5.12;73.83;97545.25;5079393;28;20052;-81
2022/01/09 01:31:47;;;;;;;0.80;0.40;;;;;;;5.14;74.01;97547.69;5078703;28;20057;-82
2022/01/09 01:34:15;;;;;;;0.88;0.40;;;;;;;5.07;74.58;97545.53;5076751;28;20052;-81
2022/01/09 01:36:42;;;;;;;0.30;0.30;;;;;;;5.08;74.36;97545.19;5078109;28;20063;-82
2022/01/09 01:39:10;;;;;;;0.52;0.30;;;;;;;4.97;74.86;97551.53;5081321;28;20537;-82
2022/01/09 01:41:37;;;;;;;0.95;0.50;;;;;;;4.99;73.83;97544.50;5078957;28;20055;-82
2022/01/09 01:44:10;;;;;;;0.80;0.40;;;;;;;5.14;74.35;97555.97;5078857;28;20053;-82
2022/01/09 01:46:37;;;;;;;0.63;0.40;;;;;;;5.19;73.43;97553.75;5078968;28;20063;-82
2022/01/09 01:49:07;;;;;;;0.93;0.50;;;;;;;5.13;73.72;97552.41;5080272;28;20620;-82
2022/01/09 01:51:35;;;;;;;0.77;0.40;;;;;;;5.20;73.36;97552.59;5079737;28;20055;-81
2022/01/09 01:54:03;;;;;;;1.00;0.45;;;;;;;5.17;73.40;97561.59;5080111;28;20049;-82
2022/01/09 01:56:31;;;;;;;0.60;0.30;;;;;;;5.21;73.60;97554.22;5080552;28;20052;-82
2022/01/09 01:58:58;;;;;;;0.73;0.43;;;;;;;5.13;74.35;97566.19;5080460;28;20076;-82
2022/01/09 02:01:25;;;;;;;0.75;0.40;;;;;;;5.14;74.04;97567.00;5081367;28;20048;-82
2022/01/09 02:03:53;;;;;;;0.40;0.30;;;;;;;5.20;74.54;97558.09;5080143;28;20049;-83
2022/01/09 02:06:22;;;;;;;0.70;0.40;;;;;;;5.28;73.76;97570.97;5080164;28;20106;-82
2022/01/09 02:08:50;;;;;;;0.75;0.40;;;;;;;5.20;74.24;97566.38;5080921;28;20423;-82
2022/01/09 02:11:17;;;;;;;1.48;0.60;;;;;;;5.15;73.96;97574.94;5079728;28;20064;-83
2022/01/09 02:13:46;;;;;;;0.47;0.30;;;;;;;5.34;73.56;97585.31;5079616;28;20052;-83
2022/01/09 02:16:18;;;;;;;0.95;0.50;;;;;;;5.19;74.33;97567.56;5080145;28;20048;-82
2022/01/09 02:18:46;;;;;;;0.70;0.43;;;;;;;5.21;73.90;97569.97;5080921;28;20064;-83
2022/01/09 02:21:15;;;;;;;1.00;0.47;;;;;;;5.37;73.76;97581.03;5080687;28;20059;-82
2022/01/09 02:23:45;;;;;;;0.68;0.50;;;;;;;5.36;73.41;97590.50;5080450;28;20052;-83
2022/01/09 02:26:12;;;;;;;0.90;0.50;;;;;;;5.19;75.85;97575.03;5080726;28;20048;-83
2022/01/09 02:28:40;;;;;;;0.70;0.30;;;;;;;5.37;75.33;97586.56;5079764;28;20052;-83
2022/01/09 02:31:08;;;;;;;0.65;0.50;;;;;;;5.20;76.58;97596.75;5079454;28;20052;-82
2022/01/09 02:33:36;;;;;;;2.40;0.52;;;;;;;5.29;76.67;97602.13;5078839;28;20462;-83
2022/01/09 02:36:04;;;;;;;0.70;0.50;;;;;;;5.16;77.73;97604.09;5079589;28;20048;-82
2022/01/09 02:38:33;;;;;;;0.77;0.50;;;;;;;5.23;78.72;97615.38;5079539;28;20048;-82
2022/01/09 02:41:02;;;;;;;1.67;0.55;;;;;;;4.92;81.08;97626.25;5079181;28;20052;-82
2022/01/09 02:43:30;;;;;;;1.60;0.70;;;;;;;4.98;82.72;97633.94;5077686;28;20053;-83
2022/01/09 02:46:06;;;;;;;2.08;0.65;;;;;;;4.88;83.51;97640.72;5078958;28;20056;-82
2022/01/09 02:48:36;;;;;;;2.72;0.75;;;;;;;4.98;82.47;97635.91;5077476;28;20060;-81
2022/01/09 02:51:09;;;;;;;8.48;1.17;;;;;;;4.96;84.42;97643.72;5078021;28;20076;-82
2022/01/09 02:53:39;;;;;;;1.40;0.90;;;;;;;4.77;87.74;97647.06;5063326;28;20052;-82
2022/01/09 02:56:08;;;;;;;2.75;0.80;;;;;;;4.62;88.57;97651.28;5063475;28;20061;-83
2022/01/09 02:58:37;;;;;;;2.65;1.15;;;;;;;4.50;90.27;97665.09;5076776;28;20044;-82
2022/01/09 03:01:05;;;;;;;1.87;1.20;;;;;;;4.42;92.45;97661.28;5077171;28;20054;-83
2022/01/09 03:03:33;;;;;;;3.75;1.40;;;;;;;4.41;90.38;97660.50;5077535;28;20040;-82
2022/01/09 03:06:01;;;;;;;2.30;1.20;;;;;;;4.40;90.18;97661.63;5078487;28;20075;-82
2022/01/09 03:08:28;;;;;;;3.25;1.02;;;;;;;4.26;89.21;97655.63;5077698;28;20059;-82
2022/01/09 03:10:57;;;;;;;4.30;1.50;;;;;;;4.31;87.90;97669.19;5078585;28;20056;-81
2022/01/09 03:13:25;;;;;;;1.75;1.17;;;;;;;4.34;88.42;97674.00;5078734;28;20048;-82
2022/01/09 03:15:52;;;;;;;2.47;1.00;;;;;;;4.23;88.13;97689.38;5077208;28;20044;-81
2022/01/09 03:18:19;;;;;;;2.63;1.00;;;;;;;4.17;89.22;97693.50;5078119;28;20505;-82
2022/01/09 03:20:47;;;;;;;2.13;1.20;;;;;;;4.27;90.13;97698.59;5077907;28;20056;-82
2022/01/09 03:23:14;;;;;;;2.42;1.10;;;;;;;4.37;91.06;97703.66;5079147;28;20048;-82
2022/01/09 03:25:41;;;;;;;2.38;1.20;;;;;;;4.43;89.87;97709.72;5078416;28;20052;-83
2022/01/09 03:28:10;;;;;;;1.90;1.20;;;;;;;4.48;90.75;97699.31;5079210;28;20044;-82
2022/01/09 03:30:38;;;;;;;6.03;1.23;;;;;;;4.44;89.93;97712.16;5079574;28;20055;-83
2022/01/09 03:33:08;;;;;;;1.85;1.08;;;;;;;4.41;89.72;97721.13;5079987;28;20060;-82
2022/01/09 03:35:35;;;;;;;2.97;1.20;;;;;;;4.46;89.46;97726.41;5078819;28;20052;-83
2022/01/09 03:38:03;;;;;;;1.50;1.00;;;;;;;4.47;91.28;97728.03;5079507;28;20042;-82
2022/01/09 03:40:30;;;;;;;4.38;2.30;;;;;;;4.46;90.54;97737.41;5079768;28;20055;-83
2022/01/09 03:42:57;;;;;;;5.22;1.80;;;;;;;4.53;90.53;97741.56;5079763;28;20060;-83
2022/01/09 03:45:27;;;;;;;3.63;1.80;;;;;;;4.45;89.54;97752.38;5080498;28;20063;-82
2022/01/09 03:47:55;;;;;;;;;;;;;;;4.64;92.20;97748.25;5080671;28;20052;-83
2022/01/09 03:50:23;;;;;;;3.95;2.42;;;;;;;4.68;90.37;97755.50;5080743;28;20381;-82
2022/01/09 03:52:51;;;;;;;5.40;3.65;;;;;;;4.81;89.84;97755.53;5079282;28;20059;-82
2022/01/09 03:55:20;;;;;;;7.18;3.00;;;;;;;4.82;89.53;97762.63;5059695;28;20406;-82
2022/01/09 03:57:48;;;;;;;5.35;3.70;;;;;;;4.86;90.36;97756.09;5086498;28;20044;-82
2022/01/09 04:00:18;;;;;;;6.38;4.45;;;;;;;4.98;90.14;97774.63;5079376;28;20052;-82
2022/01/09 04:02:48;;;;;;;5.88;3.72;;;;;;;5.05;89.69;97785.06;5079458;28;20049;-81
2022/01/09 04:05:16;;;;;;;7.50;4.30;;;;;;;5.03;88.92;97787.38;5077228;28;20049;-81
2022/01/09 04:07:46;;;;;;;7.38;4.25;;;;;;;5.07;89.09;97791.84;5082843;28;20061;-82
2022/01/09 04:10:14;;;;;;;5.32;3.85;;;;;;;5.06;87.49;97798.53;5084932;28;20047;-82
2022/01/09 04:12:50;;;;;;;5.57;3.35;;;;;;;5.23;87.35;97799.47;5083482;28;20060;-82
2022/01/09 04:15:19;;;;;;;7.50;3.85;;;;;;;5.23;87.63;97816.81;5084895;28;20524;-82
2022/01/09 04:17:51;;;;;;;6.32;3.70;;;;;;;5.27;87.38;97823.25;5085438;28;20057;-82
2022/01/09 04:20:20;;;;;;;5.00;3.22;;;;;;;5.35;87.43;97840.84;5062972;28;20422;-81
2022/01/09 04:22:48;;;;;;;5.03;3.00;;;;;;;5.36;86.37;97849.94;5065571;28;20047;-81
2022/01/09 04:25:18;;;;;;;4.30;2.60;;;;;;;5.32;86.41;97851.78;5083946;28;20062;-81
2022/01/09 04:27:46;;;;;;;;;;;;;;;5.27;86.16;97861.06;5083765;28;20461;-82
2022/01/09 04:30:13;;;;;;;3.92;2.35;;;;;;;5.21;86.21;97876.28;5084990;28;19927;-81
2022/01/09 04:32:41;;;;;;;5.18;2.47;;;;;;;5.24;86.24;97887.41;5083691;28;20048;-82
2022/01/09 04:35:11;;;;;;;5.30;2.08;;;;;;;5.42;85.98;97881.69;5081223;28;20053;-82
2022/01/09 04:37:39;;;;;;;6.78;2.10;;;;;;;5.29;85.59;97889.97;5082893;28;20048;-81
2022/01/09 04:40:10;;;;;;;3.03;1.45;;;;;;;5.40;86.21;97903.31;5080405;28;20509;-82
2022/01/09 04:42:42;;;;;;;5.72;1.83;;;;;;;5.43;85.98;97899.84;5080823;28;20052;-82
2022/01/09 04:45:11;;;;;;;5.90;2.25;;;;;;;5.51;86.40;97904.47;5081497;28;20060;-81
2022/01/09 04:47:41;;;;;;;4.60;1.80;;;;;;;5.55;85.96;97924.72;5079579;28;20053;-82
2022/01/09 04:50:14;;;;;;;5.78;2.10;;;;;;;5.60;86.54;97913.44;5080438;28;20056;-80
2022/01/09 04:52:43;;;;;;;6.07;2.28;;;;;;;5.65;86.13;97917.94;5060602;28;20422;-81
2022/01/09 04:55:11;;;;;;;7.25;2.42;;;;;;;5.64;86.29;97928.16;5077090;28;20053;-82
2022/01/09 04:57:39;;;;;;;7.80;2.38;;;;;;;5.79;86.12;97931.41;5080497;28;20056;-81
2022/01/09 05:00:08;;;;;;;6.00;2.85;;;;;;;5.81;86.58;97948.44;5079926;28;20486;-81
2022/01/09 05:02:36;;;;;;;7.40;2.92;;;;;;;5.86;86.47;97943.50;5059679;28;20056;-80
2022/01/09 05:05:04;;;;;;;10.10;2.50;;;;;;;5.66;85.36;97947.97;5078509;28;20063;-81
2022/01/09 05:07:33;;;;;;;7.70;2.30;;;;;;;5.78;86.17;97962.94;5079751;28;20053;-81
2022/01/09 05:10:00;;;;;;;6.65;2.80;;;;;;;5.95;85.89;97970.22;5079093;28;20056;-80
2022/01/09 05:12:28;;;;;;;7.97;2.92;;;;;;;6.05;86.69;97976.09;5079031;28;20052;-81
2022/01/09 05:14:56;;;;;;;10.15;3.15;;;;;;;6.10;86.95;97975.06;5078623;28;20166;-82
2022/01/09 05:17:23;;;;;;;10.48;3.15;;;;;;;6.10;86.79;97975.06;5078145;28;20155;-81
2022/01/09 05:19:52;;;;;;;7.50;2.38;;;;;;;6.16;86.75;97979.19;5078022;28;20060;-81
2022/01/09 05:22:20;;;;;;;11.52;3.38;;;;;;;6.18;85.52;97981.63;5079966;28;20052;-81
2022/01/09 05:24:49;;;;;;;12.10;3.67;;;;;;;6.09;85.57;97993.59;5079074;28;20131;-82
2022/01/09 05:27:16;;;;;;;12.10;3.97;;;;;;;6.17;85.65;98000.13;5080368;28;20060;-82
2022/01/09 05:29:44;;;;;;;11.50;4.40;;;;;;;6.17;85.15;98004.88;5080187;28;20390;-81
2022/01/09 05:32:11;;;;;;;12.77;4.53;;;;;;;6.21;85.23;98008.56;5080167;28;20048;-82
2022/01/09 05:34:39;;;;;;;15.73;4.60;;;;;;;6.30;84.91;98020.31;5081131;28;20052;-81
2022/01/09 05:37:06;;;;;;;16.33;5.45;;;;;;;6.36;84.83;98018.91;5080488;28;20052;-82
2022/01/09 05:39:34;;;;;;;22.10;5.97;;;;;;;6.36;85.13;98029.97;5079467;28;20052;-81
2022/01/09 05:42:06;;;;;;;24.77;6.50;;;;;;;6.44;85.00;98042.88;5081469;28;20063;-82
2022/01/09 05:44:33;;;;;;;26.83;6.35;;;;;;;6.37;84.64;98044.63;5082176;28;20398;-81
2022/01/09 05:47:00;;;;;;;23.98;7.22;;;;;;;6.48;84.92;98049.31;5081223;28;20434;-82
2022/01/09 05:49:31;;;;;;;25.30;7.25;;;;;;;6.38;84.08;98051.75;5080610;28;20056;-82
2022/01/09 05:51:59;;;;;;;21.15;7.72;;;;;;;6.46;84.62;98059.91;5087798;28;20048;-82
2022/01/09 05:54:27;;;;;;;25.80;7.85;;;;;;;6.41;84.99;98054.63;5080674;28;20048;-82
2022/01/09 05:56:54;;;;;;;17.70;6.85;;;;;;;6.47;84.79;98080.91;5081587;28;20059;-81
2022/01/09 05:59:23;;;;;;;21.58;7.50;;;;;;;6.52;85.22;98076.28;5080633;28;20044;-82
2022/01/09 06:01:50;;;;;;;19.55;5.40;;;;;;;6.36;81.68;98087.22;5082149;28;20053;-81
2022/01/09 06:04:18;;;;;;;11.80;4.25;;;;;;;6.48;83.40;98098.28;5082253;28;20055;-81
2022/01/09 06:06:46;;;;;;;16.08;4.78;;;;;;;6.49;82.65;98106.25;5081282;28;20056;-82
2022/01/09 06:09:13;;;;;;;11.30;3.88;;;;;;;6.56;82.57;98105.66;5080006;28;20083;-81
2022/01/09 06:11:41;;;;;;;12.82;3.47;;;;;;;6.48;82.24;98115.69;5079634;28;20605;-82
2022/01/09 06:14:08;;;;;;;13.35;3.83;;;;;;;6.47;82.82;98119.63;5059611;28;20442;-82
2022/01/09 06:16:37;;;;;;;13.00;4.57;;;;;;;6.47;83.13;98130.69;5060351;28;20054;-82
2022/01/09 06:19:05;;;;;;;17.37;4.37;;;;;;;6.47;82.32;98133.44;5079093;28;20398;-82
2022/01/09 06:21:32;;;;;;;12.10;4.35;;;;;;;6.56;82.57;98147.16;5079274;28;20479;-82
2022/01/09 06:23:59;;;;;;;13.40;4.13;;;;;;;6.58;83.32;98146.81;5078422;28;20064;-82
2022/01/09 06:26:27;;;;;;;22.00;5.60;;;;;;;6.64;83.42;98153.72;5078228;28;20051;-82
2022/01/09 06:28:54;;;;;;;16.77;5.75;;;;;;;6.38;83.80;98154.03;5078637;28;20059;-82
2022/01/09 06:31:21;;;;;;;14.43;4.55;;;;;;;6.41;83.97;98170.75;5078093;28;20055;-82
2022/01/09 06:33:50;;;;;;;20.05;6.60;;;;;;;6.56;83.60;98174.81;5080017;28;20413;-82
2022/01/09 06:36:18;;;;;;;23.77;8.57;;;;;;;6.60;84.40;98181.28;5079889;28;20417;-81
2022/01/09 06:38:45;;;;;;;22.77;8.07;;;;;;;6.57;84.62;98183.91;5079736;28;20055;-82
2022/01/09 06:41:12;;;;;;;17.77;7.78;;;;;;;6.65;83.36;98169.97;5079867;28;20062;-81
2022/01/09 06:43:40;;;;;;;24.02;8.13;;;;;;;6.57;83.63;98183.91;5077887;28;20093;-82
2022/01/09 06:46:07;;;;;;;24.90;8.68;;;;;;;6.51;83.03;98188.88;5077726;28;20052;-81
2022/01/09 06:48:35;;;;;;;26.77;10.30;;;;;;;6.69;83.46;98206.06;5077821;28;20482;-82
2022/01/09 06:51:04;;;;;;;13.80;5.35;;;;;;;6.65;82.94;98207.91;5078024;28;20055;-81
2022/01/09 06:53:31;;;;;;;10.05;3.30;;;;;;;6.50;80.81;98210.16;5077641;28;20048;-82
2022/01/09 06:55:58;;;;;;;10.75;3.33;;;;;;;6.41;81.91;98220.53;5077250;28;20067;-82
2022/01/09 06:58:26;;;;;;;10.90;4.10;;;;;;;6.37;82.04;98222.38;5079692;28;20496;-82
2022/01/09 07:00:53;;;;;;;10.75;4.60;;;;;;;6.32;82.25;98225.38;5078398;28;20048;-82
2022/01/09 07:03:21;;;;;;;12.60;4.80;;;;;;;6.27;82.12;98234.66;5077065;28;20045;-81
2022/01/09 07:05:48;;;;;;;18.33;6.90;;;;;;;6.26;82.39;98237.78;5077939;28;20489;-82
2022/01/09 07:08:17;;;;;;;19.10;7.10;;;;;;;6.32;82.71;98246.66;5077318;28;20358;-82
2022/01/09 07:10:44;;;;;;;20.55;7.53;;;;;;;6.33;82.82;98245.50;5077718;28;20060;-82
2022/01/09 07:13:12;;;;;;;27.83;9.00;;;;;;;6.29;83.23;98256.44;5078354;28;20049;-80
2022/01/09 07:15:39;;;;;;;30.00;9.32;;;;;;;6.41;83.29;98264.78;5077255;28;20044;-82
2022/01/09 07:18:06;;;;;;;26.13;8.13;;;;;;;6.47;82.77;98268.94;5078115;28;20059;-82
2022/01/09 07:20:34;;;;;;;18.75;7.90;;;;;;;6.55;82.59;98280.25;5078874;28;20067;-82
2022/01/09 07:23:02;;;;;;;22.40;8.95;;;;;;;6.59;82.54;98281.19;5076735;28;20045;-80
2022/01/09 07:25:30;;;;;;;19.25;8.90;;;;;;;6.59;82.29;98292.25;5066244;28;20049;-82
2022/01/09 07:27:58;;;;;;;26.23;8.60;;;;;;;6.62;81.99;98297.91;5066801;28;20405;-81
2022/01/09 07:30:27;;;;;;;18.35;8.10;;;;;;;6.52;81.37;98308.59;5079502;28;20409;-83
2022/01/09 07:32:55;;;;;;;24.97;7.97;;;;;;;6.46;80.06;98322.63;5079826;28;20059;-82
2022/01/09 07:35:23;;;;;;;19.55;7.95;;;;;;;6.33;78.72;98322.94;5079952;28;20055;-82
2022/01/09 07:37:51;;;;;;;16.75;7.30;;;;;;;6.30;79.71;98325.22;5080849;28;20044;-82
2022/01/09 07:40:20;;;;;;;19.05;6.40;;;;;;;6.47;81.12;98329.78;5066150;28;20048;-82
2022/01/09 07:42:49;;;;;;;16.35;6.93;;;;;;;6.38;80.49;98337.34;5078019;28;20048;-81
2022/01/09 07:45:19;;;;;;;15.03;7.00;;;;;;;6.46;81.06;98346.72;5070076;28;20100;-83
2022/01/09 07:47:47;;;;;;;17.70;6.40;;;;;;;6.42;80.39;98359.59;5080913;28;20048;-80
2022/01/09 07:50:15;;;;;;;21.00;6.80;;;;;;;6.42;80.82;98368.69;5078000;28;20044;-80
2022/01/09 07:52:42;;;;;;;16.70;6.40;;;;;;;6.38;79.31;98378.81;5078482;28;20048;-80
2022/01/09 07:55:11;;;;;;;15.73;6.60;;;;;;;6.47;80.36;98379.56;5078097;28;20048;-81
2022/01/09 07:57:38;;;;;;;19.83;6.18;;;;;;;6.43;77.79;98377.81;5075587;28;20049;-81
2022/01/09 08:00:09;;;;;;;21.17;6.63;;;;;;;6.43;79.39;98392.44;5083748;28;20041;-85
2022/01/09 08:02:37;;;;;;;16.50;6.60;;;;;;;6.50;80.17;98394.66;5084581;28;20057;-83
2022/01/09 08:05:05;;;;;;;13.10;6.18;;;;;;;6.45;78.59;98403.19;5083372;28;20057;-84
2022/01/09 08:07:33;;;;;;;18.10;6.10;;;;;;;6.42;78.68;98403.84;5082939;28;20056;-84
2022/01/09 08:10:00;;;;;;;12.63;5.82;;;;;;;6.53;79.21;98413.38;5081520;28;20059;-85
2022/01/09 08:12:28;;;;;;;14.50;5.95;;;;;;;6.50;79.83;98412.06;5082223;28;20052;-85
2022/01/09 08:14:55;;;;;;;15.13;6.32;;;;;;;6.50;79.18;98423.13;5081952;28;20486;-84
2022/01/09 08:17:24;;;;;;;16.35;5.55;;;;;;;6.65;78.88;98412.59;5080540;28;20045;-83
2022/01/09 08:19:52;;;;;;;14.93;6.72;;;;;;;6.59;77.35;98423.03;5081872;28;20056;-84
2022/01/09 08:22:19;;;;;;;17.02;5.57;;;;;;;6.64;78.19;98430.34;5082064;28;20048;-84
2022/01/09 08:24:48;;;;;;;17.65;6.03;;;;;;;6.70;76.80;98423.47;5080656;28;20052;-84
2022/01/09 08:27:15;;;;;;;16.73;5.78;;;;;;;6.73;77.13;98427.50;5081602;28;20053;-85
2022/01/09 08:29:42;;;;;;;16.05;5.80;;;;;;;6.71;75.95;98438.91;5083045;28;20056;-84
2022/01/09 08:32:12;;;;;;;17.50;7.20;;;;;;;6.75;77.01;98450.91;5083373;28;20056;-83
2022/01/09 08:34:40;;;;;;;13.85;5.05;;;;;;;6.75;75.78;98450.91;5084929;28;20055;-84
2022/01/09 08:37:11;;;;;;;17.75;5.88;;;;;;;6.82;76.05;98448.41;5081692;28;20052;-84
2022/01/09 08:39:39;;;;;;;11.85;5.28;;;;;;;6.90;76.07;98457.78;5078894;28;20060;-83
2022/01/09 08:42:06;;;;;;;13.35;4.82;;;;;;;6.82;75.67;98473.31;5077958;28;20044;-82
2022/01/09 08:44:34;;;;;;;13.20;4.93;;;;;;;6.83;75.18;98477.69;5077034;28;20052;-82
2022/01/09 08:47:01;;;;;;;9.10;4.75;;;;;;;6.94;75.51;98466.22;5075151;28;20166;-82
2022/01/09 08:49:28;;;;;;;11.30;4.78;;;;;;;7.00;75.14;98475.94;5076741;28;20466;-82
2022/01/09 08:51:57;;;;;;;15.98;5.32;;;;;;;7.05;74.87;98495.09;5076493;28;20056;-82
2022/01/09 08:54:25;;;;;;;11.80;4.53;;;;;;;6.91;74.23;98487.09;5079324;28;20048;-81
2022/01/09 08:56:52;;;;;;;14.27;4.97;;;;;;;6.82;73.29;98494.63;5079310;28;20489;-82
2022/01/09 08:59:20;;;;;;;11.38;4.43;;;;;;;6.91;73.03;98495.38;5079391;28;20064;-82
2022/01/09 09:01:48;;;;;;;13.60;4.85;;;;;;;6.94;74.65;98508.53;5078569;28;20397;-82
2022/01/09 09:04:17;;;;;;;16.13;4.38;;;;;;;7.00;75.24;98504.41;5079427;28;20489;-82
2022/01/09 09:06:44;;;;;;;15.93;5.55;;;;;;;7.09;73.93;98504.34;5078657;28;20056;-85
2022/01/09 09:09:13;;;;;;;12.93;5.72;;;;;;;7.12;73.76;98509.22;5084844;28;20605;-85
2022/01/09 09:11:41;;;;;;;16.23;6.23;;;;;;;7.10;73.26;98503.19;5085260;28;20409;-84
2022/01/09 09:14:09;;;;;;;15.27;5.63;;;;;;;7.07;73.71;98506.63;5070683;28;20478;-83
2022/01/09 09:16:36;;;;;;;15.60;5.95;;;;;;;7.22;73.71;98519.84;5082275;28;20049;-84
2022/01/09 09:19:04;;;;;;;15.13;6.35;;;;;;;7.21;71.91;98526.53;5081158;28;20484;-84
2022/01/09 09:21:31;;;;;;;13.85;5.45;;;;;;;7.25;72.03;98530.25;5084532;28;20048;-86
2022/01/09 09:23:59;;;;;;;14.10;5.78;;;;;;;7.47;71.48;98528.25;5081998;28;20048;-85
2022/01/09 09:26:27;;;;;;;18.50;6.40;;;;;;;7.50;70.40;98533.91;5083408;28;20466;-86
2022/01/09 09:28:55;;;;;;;13.52;4.90;;;;;;;7.52;70.08;98539.91;5089021;28;20055;-85
2022/01/09 09:31:22;;;;;;;14.38;5.55;;;;;;;7.64;69.86;98547.47;5088499;28;20054;-85
2022/01/09 09:33:49;;;;;;;10.43;4.47;;;;;;;7.67;69.48;98545.97;5088529;28;20052;-85
2022/01/09 09:36:17;;;;;;;10.98;4.65;;;;;;;7.64;68.53;98555.78;5088365;28;20036;-86
2022/01/09 09:38:44;;;;;;;13.93;4.93;;;;;;;7.91;69.42;98545.19;5087771;28;20079;-86
2022/01/09 09:41:12;;;;;;;12.20;5.00;;;;;;;8.03;68.20;98553.53;5088491;28;20063;-86
2022/01/09 09:43:41;;;;;;;12.75;4.88;;;;;;;7.82;68.95;98561.94;5087411;28;20045;-86
2022/01/09 09:46:08;;;;;;;12.30;5.10;;;;;;;7.80;69.55;98561.47;5087396;28;20063;-86
2022/01/09 09:48:36;;;;;;;8.35;4.15;;;;;;;7.81;69.19;98570.59;5087571;28;20055;-86
2022/01/09 09:51:03;;;;;;;11.63;4.35;;;;;;;7.91;68.14;98586.78;5087574;28;20381;-86
2022/01/09 09:53:31;;;;;;;12.90;4.53;;;;;;;7.92;68.49;98580.91;5088502;28;20052;-86
2022/01/09 09:55:58;;;;;;;12.23;4.45;;;;;;;7.76;68.49;98588.25;5087799;28;20048;-86
2022/01/09 09:58:27;;;;;;;9.63;4.95;;;;;;;7.70;68.96;98586.84;5087202;28;20059;-86
2022/01/09 10:00:57;;;;;;;11.88;4.90;;;;;;;7.79;68.91;98593.13;5088012;28;20058;-87
2022/01/09 10:03:28;;;;;;;13.80;4.20;;;;;;;7.67;68.65;98595.84;5088838;28;20052;-86
2022/01/09 10:05:55;;;;;;;9.55;4.65;;;;;;;7.60;68.77;98599.19;5088270;28;20058;-86
2022/01/09 10:08:34;;;;;;;11.00;4.43;;;;;;;7.43;68.81;98602.09;5087278;28;20057;-86
2022/01/09 10:11:12;;;;;;;10.27;4.65;;;;;;;7.54;68.50;98608.84;5086805;28;20049;-85
2022/01/09 10:13:39;;;;;;;10.50;4.80;;;;;;;7.62;68.39;98612.66;5087107;28;20048;-85
2022/01/09 10:16:10;;;;;;;15.98;5.32;;;;;;;7.84;68.09;98620.59;5087531;28;20052;-85
2022/01/09 10:18:40;;;;;;;13.35;5.53;;;;;;;7.80;68.37;98610.56;5087140;28;20056;-84
2022/01/09 10:21:07;;;;;;;;;;;;;;;7.92;68.02;98621.69;5089013;28;20052;-85
2022/01/09 10:23:35;;;;;;;13.05;5.30;;;;;;;8.13;66.70;98613.28;5085539;28;19936;-84
2022/01/09 10:26:11;;;;;;;9.57;5.47;;;;;;;8.27;66.58;98627.66;5087022;28;20059;-85
2022/01/09 10:28:39;;;;;;;12.90;5.68;;;;;;;8.00;67.79;98631.03;5090363;28;20049;-84
2022/01/09 10:31:18;;;;;;;10.70;5.63;;;;;;;8.21;67.71;98636.50;5085497;28;20052;-85
2022/01/09 10:33:57;;;;;;;10.30;4.50;;;;;;;8.38;68.01;98641.88;5085429;28;20052;-84
2022/01/09 10:36:42;;;;;;;11.35;4.97;;;;;;;8.54;67.24;98640.06;5084130;28;20048;-85
2022/01/09 10:39:14;;;;;;;11.57;5.65;;;;;;;8.59;67.25;98641.81;5085215;28;20045;-86
2022/01/09 10:41:55;;;;;;;11.75;4.57;;;;;;;8.75;67.62;98644.69;5086080;28;20048;-85
2022/01/09 10:44:27;;;;;;;8.88;4.60;;;;;;;8.60;65.23;98648.16;5064733;28;20049;-85
2022/01/09 10:47:01;;;;;;;10.70;4.75;;;;;;;8.45;65.58;98656.00;5082964;28;20053;-84
2022/01/09 10:49:39;;;;;;;10.68;4.68;;;;;;;8.48;65.27;98662.81;5079734;28;20052;-87
2022/01/09 10:52:15;;;;;;;8.95;4.60;;;;;;;8.08;66.02;98672.56;5080901;28;20052;-85
2022/01/09 10:54:46;;;;;;;8.43;5.25;;;;;;;8.16;67.36;98665.28;5080888;28;20079;-86
2022/01/09 10:57:16;;;;;;;10.07;4.45;;;;;;;8.25;66.34;98671.56;5079658;28;20052;-85
2022/01/09 10:59:43;;;;;;;9.27;4.40;;;;;;;8.26;66.89;98681.50;5080791;28;20055;-86
2022/01/09 11:02:14;;;;;;;9.77;5.05;;;;;;;8.27;66.17;98683.13;5079852;28;20041;-85
2022/01/09 11:04:42;;;;;;;8.00;5.13;;;;;;;8.27;67.28;98691.44;5079739;28;20052;-85
2022/01/09 11:07:10;;;;;;;11.15;4.93;;;;;;;8.14;66.11;98687.00;5080327;28;20056;-85
2022/01/09 11:09:41;;;;;;;9.88;4.88;;;;;;;8.00;66.64;98698.41;5082411;28;20052;-85
2022/01/09 11:12:10;;;;;;;12.40;5.57;;;;;;;7.91;67.17;98695.69;5080024;28;20068;-84
2022/01/09 11:14:41;;;;;;;11.40;5.30;;;;;;;7.97;67.49;98699.06;5081093;28;20056;-85
2022/01/09 11:17:10;;;;;;;10.50;4.85;;;;;;;7.81;68.03;98700.84;5081671;28;20048;-85
2022/01/09 11:19:39;;;;;;;11.20;5.40;;;;;;;7.79;67.93;98703.16;5078697;28;20049;-86
2022/01/09 11:22:10;;;;;;;7.75;4.80;;;;;;;7.99;67.70;98701.50;5081702;28;20059;-87
2022/01/09 11:25:12;;;;;;;10.88;5.03;;;;;;;7.86;66.93;98707.00;5080414;28;20049;-88
2022/01/09 11:27:50;;;;;;;11.32;5.05;;;;;;;7.99;68.47;98715.38;5061441;28;20048;-86
2022/01/09 11:30:25;;;;;;;15.15;5.25;;;;;;;7.89;67.23;98717.41;5062014;28;20471;-87
2022/01/09 11:33:07;;;;;;;10.93;5.88;;;;;;;8.02;66.93;98718.28;5061930;28;20079;-86
2022/01/09 11:35:46;;;;;;;8.48;4.88;;;;;;;7.97;66.46;98732.34;5061318;28;20060;-87
2022/01/09 11:38:26;;;;;;;12.97;5.53;;;;;;;7.91;66.27;98736.47;5077561;28;20056;-87
2022/01/09 11:40:54;;;;;;;13.10;5.80;;;;;;;7.64;66.87;98727.59;5080044;28;20052;-86
2022/01/09 11:43:21;;;;;;;8.90;5.10;;;;;;;7.88;67.79;98735.19;5079124;28;20060;-87
2022/01/09 11:45:51;;;;;;;11.05;5.07;;;;;;;8.01;66.61;98732.47;5079592;28;20044;-86